Time;durP1;ratioP1;P1;durP2;ratioP2;P2;SDS_P1;SDS_P2;PMS_P1;PMS_P2;Temp;Humidity;BMP_temperature;BMP_pressure;BME280_temperature;BME280_humidity;BME280_pressure;Samples;Min_cycle;Max_cycle;Signal;HPM_P1;HPM_P2
2021/12/20 00:00:43;;;;;;;36.92;6.45;;;;;;;;;;5079436;28;20083;-84
2021/12/20 00:03:09;;;;;;;42.78;6.63;;;;;;;;;;5096404;28;20176;-84
2021/12/20 00:05:38;;;;;;;48.50;6.57;;;;;;;;;;5096562;28;20051;-84
2021/12/20 00:08:04;;;;;;;43.58;6.88;;;;;;;;;;5097035;28;20097;-84
2021/12/20 00:10:30;;;;;;;46.13;6.68;;;;;;;;;;5079246;28;20056;-84
2021/12/20 00:12:56;;;;;;;40.97;7.80;;;;;;;;;;5079215;28;20044;-84
2021/12/20 00:15:22;;;;;;;37.33;7.43;;;;;;;;;;5079380;28;20083;-84
2021/12/20 00:17:49;;;;;;;41.50;6.57;;;;;;;;;;5095806;28;20054;-84
2021/12/20 00:20:15;;;;;;;41.22;7.32;;;;;;;;;;5078941;28;20040;-84
2021/12/20 00:22:41;;;;;;;39.38;6.32;;;;;;;;;;5095159;28;20044;-84
2021/12/20 00:25:07;;;;;;;40.45;6.63;;;;;;;;;;5078064;28;20410;-84
2021/12/20 00:27:33;;;;;;;39.38;6.43;;;;;;;;;;5095751;28;20451;-84
2021/12/20 00:29:59;;;;;;;41.72;6.90;;;;;;;;;;5078451;28;20040;-84
2021/12/20 00:32:26;;;;;;;41.00;7.32;;;;;;;;;;5078510;28;20135;-84
2021/12/20 00:34:52;;;;;;;39.53;6.40;;;;;;;;;;5078164;28;20044;-84
2021/12/20 00:40:20;;;;;;;38.92;6.35;;;;;;;;;;5095195;28;20048;-84
2021/12/20 00:42:47;;;;;;;37.38;6.22;;;;;;;;;;5078429;28;20051;-84
2021/12/20 00:45:13;;;;;;;36.63;6.25;;;5.70;99.90;;;;;;5077893;28;20050;-84
2021/12/20 00:47:41;;;;;;;38.97;6.07;;;5.60;99.90;;;;;;5077870;28;20044;-84
2021/12/20 00:50:09;;;;;;;33.53;5.70;;;5.40;99.90;;;;;;5078188;28;20101;-84
2021/12/20 00:52:35;;;;;;;38.47;6.00;;;;;;;;;;5077850;28;20047;-86
2021/12/20 00:55:01;;;;;;;32.95;5.78;;;;;;;;;;5077706;28;20044;-84
2021/12/20 00:57:27;;;;;;;38.67;6.63;;;;;;;;;;5077781;28;20044;-84
2021/12/20 00:59:53;;;;;;;42.95;6.68;;;;;;;;;;5094726;28;20056;-84
2021/12/20 01:02:19;;;;;;;42.72;6.65;;;;;;;;;;5094760;28;20056;-84
2021/12/20 01:04:45;;;;;;;34.13;5.82;;;;;;;;;;5094696;28;20085;-84
2021/12/20 01:07:11;;;;;;;42.70;6.32;;;;;;;;;;5078214;28;20059;-84
2021/12/20 01:09:38;;;;;;;37.50;6.45;;;;;;;;;;5077949;28;20489;-84
2021/12/20 01:12:06;;;;;;;45.95;5.93;;;;;;;;;;5095001;28;20101;-84
2021/12/20 01:14:35;;;;;;;39.60;5.75;;;4.80;99.90;;;;;;5078192;28;20101;-84
2021/12/20 01:17:05;;;;;;;35.58;6.03;;;;;;;;;;5078323;28;20039;-84
2021/12/20 01:19:31;;;;;;;45.30;6.40;;;;;;;;;;5084698;28;20122;-84
2021/12/20 01:21:57;;;;;;;40.47;6.70;;;;;;;;;;5081892;28;20173;-84
2021/12/20 01:24:23;;;;;;;46.85;5.97;;;;;;;;;;5098569;28;20048;-84
2021/12/20 01:26:49;;;;;;;46.08;7.00;;;;;;;;;;5079790;28;20052;-84
2021/12/20 01:29:16;;;;;;;48.38;7.05;;;;;;;;;;5096082;28;20043;-84
2021/12/20 01:31:42;;;;;;;36.85;6.35;;;;;;;;;;5095812;28;20434;-83
2021/12/20 01:34:08;;;;;;;39.03;6.32;;;;;;;;;;5094824;28;20132;-84
2021/12/20 01:36:34;;;;;;;39.88;6.35;;;;;;;;;;5077325;28;20424;-84
2021/12/20 01:39:03;;;;;;;37.28;6.22;;;;;;;;;;5093900;28;20409;-83
2021/12/20 01:41:29;;;;;;;37.58;6.20;;;;;;;;;;5077055;28;20063;-83
2021/12/20 01:43:55;;;;;;;34.58;6.07;;;;;;;;;;5077774;28;20161;-83
2021/12/20 01:46:23;;;;;;;42.17;7.25;;;4.20;99.90;;;;;;5094453;28;20489;-84
2021/12/20 01:48:50;;;;;;;40.72;6.97;;;4.10;99.90;;;;;;5077217;28;20086;-84
2021/12/20 01:53:58;;;;;;;36.65;6.38;;;4.00;99.90;;;;;;5094201;28;20496;-83
2021/12/20 01:56:24;;;;;;;51.42;6.45;;;;;;;;;;5093797;28;20119;-84
2021/12/20 01:58:51;;;;;;;50.60;6.90;;;;;;;;;;5078786;28;20125;-84
2021/12/20 02:03:51;;;;;;;46.67;6.25;;;3.70;99.90;;;;;;5114962;28;20055;-84
2021/12/20 02:06:29;;;;;;;39.95;6.07;;;;;;;;;;5080653;28;20108;-84
2021/12/20 02:08:59;;;;;;;36.22;5.80;;;3.60;99.90;;;;;;5080423;28;20400;-84
2021/12/20 02:11:25;;;;;;;40.60;6.22;;;;;;;;;;5097362;28;20051;-83
2021/12/20 02:13:52;;;;;;;35.58;6.32;;;;;;;;;;5097488;28;20043;-84
2021/12/20 02:16:20;;;;;;;43.70;5.93;;;3.50;99.90;;;;;;5096927;28;20047;-84
2021/12/20 02:18:46;;;;;;;40.63;5.40;;;;;;;;;;5081074;28;20050;-84
2021/12/20 02:21:13;;;;;;;40.00;5.65;;;;;;;;;;5098064;28;20047;-84
2021/12/20 02:23:39;;;;;;;38.60;5.80;;;;;;;;;;5097906;28;20039;-84
2021/12/20 02:26:11;;;;;;;38.65;5.70;;;3.30;99.90;;;;;;5081264;28;20096;-84
2021/12/20 02:28:41;;;;;;;46.90;7.05;;;;;;;;;;5097571;28;20054;-84
2021/12/20 02:39:20;;;;;;;39.40;4.97;;;;;;;;;;5083671;28;20131;-84
2021/12/20 02:41:46;;;;;;;48.10;5.47;;;;;;;;;;5081305;28;20054;-83
2021/12/20 02:44:20;;;;;;;36.97;5.47;;;;;;;;;;5083802;28;20124;-83
2021/12/20 02:47:04;;;;;;;44.38;5.60;;;2.90;99.90;;;;;;5087174;28;20036;-84
2021/12/20 02:49:30;;;;;;;37.33;5.03;;;;;;;;;;5110344;28;20047;-83
2021/12/20 02:52:05;;;;;;;36.35;5.65;;;2.90;99.90;;;;;;5098480;28;20032;-84
2021/12/20 02:54:31;;;;;;;40.92;4.97;;;;;;;;;;5102449;28;20065;-84
2021/12/20 02:56:57;;;;;;;45.90;6.05;;;;;;;;;;5101712;28;20040;-85
2021/12/20 02:59:23;;;;;;;52.15;7.38;;;;;;;;;;5100321;28;20048;-83
2021/12/20 03:02:02;;;;;;;37.67;5.65;;;3.00;99.90;;;;;;5099942;28;20071;-83
2021/12/20 03:04:28;;;;;;;43.72;6.07;;;;;;;;;;5099415;28;20047;-83
2021/12/20 03:06:58;;;;;;;40.40;5.53;;;3.00;99.90;;;;;;5098813;28;20061;-83
2021/12/20 03:09:30;;;;;;;47.90;6.45;;;2.90;99.90;;;;;;5114178;28;20043;-84
2021/12/20 03:11:58;;;;;;;49.30;6.10;;;;;;;;;;5126698;28;20055;-83
2021/12/20 03:14:32;;;;;;;43.63;5.50;;;;;;;;;;5104662;28;20101;-84
2021/12/20 03:16:58;;;;;;;43.33;5.20;;;3.00;99.90;;;;;;5083146;28;20096;-84
2021/12/20 03:19:26;;;;;;;36.35;5.53;;;2.90;99.90;;;;;;5094188;28;20855;-84
2021/12/20 03:21:52;;;;;;;44.15;5.07;;;;;;;;;;5077574;28;20552;-84
2021/12/20 03:24:18;;;;;;;38.78;5.45;;;;;;;;;;5113137;28;20183;-85
2021/12/20 03:26:44;;;;;;;41.80;5.65;;;;;;;;;;5094644;28;20051;-83
2021/12/20 03:29:11;;;;;;;44.08;6.35;;;;;;;;;;5094983;28;20052;-84
2021/12/20 03:31:37;;;;;;;47.00;6.03;;;2.90;99.90;;;;;;5077738;28;20043;-84
2021/12/20 03:34:03;;;;;;;48.00;5.95;;;;;;;;;;5094821;28;20173;-83
2021/12/20 03:36:29;;;;;;;43.33;5.78;;;;;;;;;;5078086;28;20052;-84
2021/12/20 03:38:55;;;;;;;54.88;5.82;;;;;;;;;;5095092;28;20062;-84
2021/12/20 03:41:22;;;;;;;40.40;5.45;;;2.90;99.90;;;;;;5113824;28;20104;-84
2021/12/20 03:43:48;;;;;;;38.55;4.78;;;;;;;;;;5078134;28;20048;-83
2021/12/20 03:46:14;;;;;;;55.35;6.07;;;;;;;;;;5095263;28;20040;-83
2021/12/20 03:48:40;;;;;;;33.22;5.30;;;;;;;;;;5078978;28;20043;-84
2021/12/20 03:51:07;;;;;;;38.15;5.03;;;;;;;;;;5078904;28;20043;-84
2021/12/20 03:53:34;;;;;;;42.03;5.38;;;2.80;99.90;;;;;;5078878;28;20043;-84
2021/12/20 03:56:01;;;;;;;41.95;6.25;;;2.90;99.90;;;;;;5095402;28;20047;-84
2021/12/20 03:58:28;;;;;;;44.03;6.03;;;;;;;;;;5099264;28;20043;-84
2021/12/20 04:00:59;;;;;;;32.03;4.85;;;2.80;99.90;;;;;;5081918;28;20517;-84
2021/12/20 04:03:28;;;;;;;39.08;5.15;;;;;;;;;;5099388;28;20043;-84
2021/12/20 04:05:54;;;;;;;34.55;5.20;;;;;;;;;;5098836;28;20047;-84
2021/12/20 04:08:20;;;;;;;40.33;4.93;;;;;;;;;;5098314;28;20087;-84
2021/12/20 04:10:46;;;;;;;32.13;4.55;;;;;;;;;;5116396;28;20180;-84
2021/12/20 04:13:12;;;;;;;31.17;4.55;;;;;;;;;;5116592;28;20472;-84
2021/12/20 04:15:39;;;;;;;37.45;4.65;;;;;;;;;;5081236;28;20047;-84
2021/12/20 04:18:05;;;;;;;32.45;4.55;;;;;;;;;;5081408;28;20133;-84
2021/12/20 04:20:31;;;;;;;26.33;4.38;;;;;;;;;;5098671;28;20039;-84
2021/12/20 04:22:57;;;;;;;39.47;4.60;;;;;;;;;;5081766;28;20059;-84
2021/12/20 04:25:23;;;;;;;33.38;4.15;;;;;;;;;;5080387;28;20092;-84
2021/12/20 04:27:49;;;;;;;29.52;5.07;;;;;;;;;;5080548;28;20058;-83
2021/12/20 04:30:16;;;;;;;38.05;4.65;;;;;;;;;;5080635;28;20371;-84
2021/12/20 04:32:44;;;;;;;34.92;4.75;;;2.20;99.90;;;;;;5097457;28;20051;-84
2021/12/20 04:35:13;;;;;;;30.27;4.80;;;2.10;99.90;;;;;;5097962;28;20039;-83
2021/12/20 04:37:41;;;;;;;32.63;4.43;;;2.10;99.90;;;;;;5081409;28;20044;-84
2021/12/20 04:40:11;;;;;;;47.92;5.38;;;;;;;;;;5115926;28;20044;-84
2021/12/20 04:42:37;;;;;;;39.95;4.72;;;;;;;;;;5097964;28;20098;-84
2021/12/20 04:45:03;;;;;;;39.50;5.00;;;;;;;;;;5097761;28;20059;-84
2021/12/20 04:47:29;;;;;;;45.42;4.57;;;;;;;;;;5081007;28;20110;-84
2021/12/20 04:49:55;;;;;;;43.03;5.40;;;;;;;;;;5080377;28;20405;-84
2021/12/20 04:52:23;;;;;;;37.25;4.22;;;;;;;;;;5080252;28;20096;-84
2021/12/20 04:54:49;;;;;;;39.95;5.15;;;;;;;;;;5080890;28;20130;-83
2021/12/20 04:57:17;;;;;;;31.20;4.50;;;1.90;99.90;;;;;;5080348;28;20048;-84
2021/12/20 04:59:43;;;;;;;30.73;4.50;;;;;;;;;;5079953;28;20063;-84
2021/12/20 05:02:09;;;;;;;40.85;4.25;;;;;;;;;;5097359;28;20083;-83
2021/12/20 05:04:35;;;;;;;32.80;4.38;;;;;;;;;;5080928;28;20050;-84
2021/12/20 05:07:03;;;;;;;42.85;4.90;;;;;;;;;;5080185;28;20281;-84
2021/12/20 05:09:36;;;;;;;32.97;4.32;;;;;;;;;;5096286;28;20474;-84
2021/12/20 05:12:10;;;;;;;31.75;4.38;;;;;;;;;;5115891;28;20051;-84
2021/12/20 05:14:36;;;;;;;25.05;4.20;;;;;;;;;;5080878;28;20044;-83
2021/12/20 05:17:03;;;;;;;22.88;4.05;;;;;;;;;;5080517;28;20047;-84
2021/12/20 05:19:29;;;;;;;33.28;3.67;;;;;;;;;;5080906;28;20105;-84
2021/12/20 05:21:56;;;;;;;24.55;4.25;;;;;;;;;;5097116;28;20047;-84
2021/12/20 05:24:22;;;;;;;32.58;4.13;;;;;;;;;;5080493;28;20051;-84
2021/12/20 05:26:48;;;;;;;34.83;4.35;;;;;;;;;;5080415;28;20075;-84
2021/12/20 05:29:14;;;;;;;38.40;4.80;;;;;;;;;;5081158;28;20058;-84
2021/12/20 05:31:40;;;;;;;37.17;4.05;;;;;;;;;;5081674;28;20122;-84
2021/12/20 05:34:06;;;;;;;25.55;4.28;;;;;;;;;;5100343;28;20067;-84
2021/12/20 05:36:32;;;;;;;40.05;4.95;;;;;;;;;;5087900;28;20138;-84
2021/12/20 05:38:58;;;;;;;31.52;4.18;;;;;;;;;;5086749;28;20039;-84
2021/12/20 05:41:24;;;;;;;29.20;4.28;;;;;;;;;;5103435;28;20440;-84
2021/12/20 05:43:52;;;;;;;34.40;4.10;;;;;;;;;;5101439;28;20051;-84
2021/12/20 05:46:18;;;;;;;31.10;3.80;;;;;;;;;;5084890;28;20039;-84
2021/12/20 05:48:44;;;;;;;47.28;5.57;;;;;;;;;;5105351;28;20101;-84
2021/12/20 05:51:10;;;;;;;26.13;4.28;;;;;;;;;;5102264;28;20051;-84
2021/12/20 05:53:36;;;;;;;27.42;4.55;;;;;;;;;;5086171;28;20097;-83
2021/12/20 05:56:02;;;;;;;39.88;4.97;;;;;;;;;;5081245;28;20482;-82
2021/12/20 05:58:28;;;;;;;34.03;4.55;;;;;;;;;;5116626;28;20516;-84
2021/12/20 06:00:54;;;;;;;37.55;4.75;;;;;;;;;;5081036;28;20044;-84
2021/12/20 06:03:20;;;;;;;43.17;6.38;;;;;;;;;;5098910;28;20047;-84
2021/12/20 06:05:46;;;;;;;33.65;4.85;;;;;;;;;;5082469;28;20132;-83
2021/12/20 06:08:12;;;;;;;42.50;5.40;;;;;;;;;;5084206;28;20044;-84
2021/12/20 06:10:39;;;;;;;38.65;4.80;;;;;;;;;;5079973;28;20048;-84
2021/12/20 06:13:05;;;;;;;33.63;4.85;;;;;;;;;;5111063;28;20051;-86
2021/12/20 06:15:32;;;;;;;43.17;5.60;;;;;;;;;;5080458;28;20450;-82
2021/12/20 06:17:58;;;;;;;41.45;6.72;;;;;;;;;;5079341;28;20429;-83
2021/12/20 06:20:26;;;;;;;39.00;5.65;;;1.20;99.90;;;;;;5094676;28;20047;-85
2021/12/20 06:22:55;;;;;;;33.63;4.95;;;;;;;;;;5095320;27;20130;-84
2021/12/20 06:25:21;;;;;;;37.78;5.32;;;;;;;;;;5098196;27;20130;-84
2021/12/20 06:27:47;;;;;;;36.53;5.07;;;;;;;;;;5078143;28;20067;-84
2021/12/20 06:30:14;;;;;;;33.38;5.10;;;1.10;99.90;;;;;;5079906;28;20123;-85
2021/12/20 06:32:41;;;;;;;35.30;5.35;;;1.10;99.90;;;;;;5079627;27;20135;-84
2021/12/20 06:35:08;;;;;;;45.47;5.32;;;;;;;;;;5116274;27;20438;-84
2021/12/20 06:37:34;;;;;;;47.47;5.65;;;1.10;99.90;;;;;;5100115;27;20404;-84
2021/12/20 06:40:00;;;;;;;45.55;5.22;;;;;;;;;;5099967;27;20122;-83
2021/12/20 06:42:27;;;;;;;37.55;5.53;;;;;;;;;;5100146;28;20513;-84
2021/12/20 06:44:53;;;;;;;49.17;5.95;;;;;;;;;;5116766;28;20126;-84
2021/12/20 06:47:20;;;;;;;45.88;5.75;;;;;;;;;;5100293;28;20439;-84
2021/12/20 06:49:48;;;;;;;30.35;5.85;;;1.10;99.90;;;;;;5100197;28;20132;-84
2021/12/20 06:52:14;;;;;;;42.30;4.95;;;;;;;;;;5117616;28;20047;-84
2021/12/20 06:54:41;;;;;;;35.42;5.35;;;;;;;;;;5101500;28;20088;-85
2021/12/20 06:57:07;;;;;;;31.42;6.22;;;;;;;;;;5118604;28;20049;-83
2021/12/20 06:59:33;;;;;;;30.17;4.85;;;;;;;;;;5102262;28;20057;-85
2021/12/20 07:01:59;;;;;;;39.10;5.40;;;;;;;;;;5103741;28;20130;-84
2021/12/20 07:04:25;;;;;;;45.95;5.68;;;;;;;;;;5120828;28;20043;-84
2021/12/20 07:06:53;;;;;;;44.25;6.07;;;;;;;;;;5109058;28;20047;-84
2021/12/20 07:09:19;;;;;;;35.40;5.55;;;;;;;;;;5086165;28;20046;-84
2021/12/20 07:11:46;;;;;;;37.20;5.30;;;0.40;99.90;;;;;;5101639;28;20075;-84
2021/12/20 07:14:13;;;;;;;35.30;5.90;;;;;;;;;;5102010;28;20055;-85
2021/12/20 07:16:40;;;;;;;42.55;6.15;;;;;;;;;;5101539;28;20103;-84
2021/12/20 07:19:06;;;;;;;53.60;5.80;;;;;;;;;;5118600;28;20074;-85
2021/12/20 07:21:33;;;;;;;39.75;6.55;;;;;;;;;;5100413;28;20050;-84
2021/12/20 07:23:59;;;;;;;43.45;6.57;;;;;;;;;;5101016;28;20047;-85
2021/12/20 07:26:25;;;;;;;41.92;6.63;;;;;;;;;;5099920;28;20039;-84
2021/12/20 07:28:51;;;;;;;49.35;6.63;;;;;;;;;;5099517;28;20051;-84
2021/12/20 07:31:17;;;;;;;39.88;6.00;;;;;;;;;;5099918;27;20057;-84
2021/12/20 07:33:44;;;;;;;51.10;5.88;;;;;;;;;;5103786;27;20070;-84
2021/12/20 07:36:14;;;;;;;33.97;6.50;;;;;;;;;;5119659;27;20051;-84
2021/12/20 07:38:40;;;;;;;43.20;5.97;;;;;;;;;;5103507;27;20130;-84
2021/12/20 07:41:06;;;;;;;40.63;6.10;;;;;;;;;;5120554;27;20043;-84
2021/12/20 07:43:32;;;;;;;302.00;21.63;;;;;;;;;;5120443;27;20050;-84
2021/12/20 07:45:58;;;;;;;198.15;16.52;;;;;;;;;;5120049;27;20047;-84
2021/12/20 07:48:25;;;;;;;158.65;13.90;;;;;;;;;;5103203;27;20046;-84
2021/12/20 07:50:51;;;;;;;119.97;10.75;;;;;;;;;;5103058;27;20042;-84
2021/12/20 07:53:17;;;;;;;75.00;9.68;;;;;;;;;;5103753;27;20043;-84
2021/12/20 07:55:43;;;;;;;124.95;10.98;;;;;;;;;;5102425;27;20504;-84
2021/12/20 07:58:10;;;;;;;127.90;13.40;;;;;;;;;;5103053;27;20045;-83
2021/12/20 08:00:36;;;;;;;57.17;7.13;;;;;;;;;;5102379;27;20063;-84
2021/12/20 08:03:02;;;;;;;49.88;6.07;;;;;;;;;;5100681;27;20512;-84
2021/12/20 08:05:29;;;;;;;44.28;6.90;;;0.10;99.90;;;;;;5082531;28;20043;-84
2021/12/20 08:07:55;;;;;;;78.95;9.55;;;0.00;99.90;;;;;;5099373;28;20371;-84
2021/12/20 08:10:23;;;;;;;105.15;9.63;;;0.10;99.90;;;;;;5082749;28;20100;-85
2021/12/20 08:12:50;;;;;;;84.38;9.85;;;;;;;;;;5082421;28;20105;-85
2021/12/20 08:15:16;;;;;;;63.15;8.50;;;;;;;;;;5082629;28;20047;-85
2021/12/20 08:17:43;;;;;;;59.17;7.95;;;;;;;;;;5082565;28;20139;-85
2021/12/20 08:20:10;;;;;;;64.63;8.32;;;0.10;99.90;;;;;;5099403;28;20048;-85
2021/12/20 08:22:36;;;;;;;70.03;8.30;;;;;;;;;;5082498;28;20047;-86
2021/12/20 08:25:03;;;;;;;50.97;7.55;;;0.10;99.90;;;;;;5081922;28;20047;-84
2021/12/20 08:27:29;;;;;;;36.17;7.00;;;;;;;;;;5081696;28;20062;-84
2021/12/20 08:29:56;;;;;;;40.70;6.30;;;;;;;;;;5081945;28;20917;-84
2021/12/20 08:32:22;;;;;;;40.05;6.50;;;;;;;;;;5081116;28;20039;-85
2021/12/20 08:34:48;;;;;;;41.22;7.20;;;;;;;;;;5080904;28;20050;-84
2021/12/20 08:37:14;;;;;;;61.50;8.13;;;;;;;;;;5081151;28;20056;-84
2021/12/20 08:39:40;;;;;;;54.00;8.00;;;;;;;;;;5081005;28;20047;-84
2021/12/20 08:42:07;;;;;;;54.70;7.43;;;;;;;;;;5090996;27;20043;-84
2021/12/20 08:44:36;;;;;;;39.90;7.07;;;;;;;;;;5118321;27;20043;-84
2021/12/20 08:47:02;;;;;;;46.97;7.07;;;0.30;99.90;;;;;;5117633;27;20062;-84
2021/12/20 08:49:28;;;;;;;39.85;7.15;;;;;;;;;;5101508;27;20473;-84
2021/12/20 08:51:55;;;;;;;38.50;6.80;;;0.30;99.90;;;;;;5118057;27;20039;-84
2021/12/20 08:54:24;;;;;;;38.55;6.93;;;;;;;;;;5101170;27;20049;-84
2021/12/20 08:56:50;;;;;;;30.10;6.95;;;;;;;;;;5101357;27;20125;-85
2021/12/20 08:59:16;;;;;;;40.88;7.38;;;;;;;;;;5100203;27;20062;-84
2021/12/20 09:01:43;;;;;;;36.15;6.30;;;;;;;;;;5100093;27;20087;-84
2021/12/20 09:04:09;;;;;;;57.70;8.00;;;0.50;99.90;;;;;;5100915;27;20091;-84
2021/12/20 09:06:39;;;;;;;59.58;7.88;;;;;;;;;;5100697;27;20051;-84
2021/12/20 09:09:05;;;;;;;45.03;7.00;;;;;;;;;;5100722;27;20047;-84
2021/12/20 09:11:31;;;;;;;58.22;7.93;;;;;;;;;;5117902;27;20051;-84
2021/12/20 09:13:57;;;;;;;371.60;25.17;;;;;;;;;;5101363;27;20082;-85
2021/12/20 09:16:23;;;;;;;558.15;40.10;;;;;;;;;;5100993;27;20142;-85
2021/12/20 09:18:49;;;;;;;555.55;41.97;;;;;;;;;;5100532;27;20100;-84
2021/12/20 09:21:16;;;;;;;397.02;26.23;;;;;;;;;;5100168;27;20162;-85
2021/12/20 09:23:42;;;;;;;227.40;18.40;;;;;;;;;;5100539;27;20473;-84
2021/12/20 09:26:09;;;;;;;141.57;13.63;;;;;;;;;;5101108;27;20385;-84
2021/12/20 09:28:35;;;;;;;106.50;12.02;;;;;;;;;;5117450;27;20047;-84
2021/12/20 09:31:02;;;;;;;111.60;12.38;;;1.00;99.90;;;;;;5117730;27;20437;-83
2021/12/20 09:33:28;;;;;;;127.60;14.15;;;;;;;;;;5117581;27;20485;-85
2021/12/20 09:35:54;;;;;;;238.38;19.25;;;;;;;;;;5117751;27;20488;-85
2021/12/20 09:38:21;;;;;;;175.50;17.20;;;1.10;99.90;;;;;;5100721;27;20038;-84
2021/12/20 09:41:13;;;;;;;99.32;11.57;;;1.10;99.90;;;;;;5100207;27;20081;-84
2021/12/20 09:43:48;;;;;;;89.18;12.85;;;1.30;99.90;;;;;;5117508;27;20043;-85
2021/12/20 09:46:16;;;;;;;86.97;14.68;;;1.90;99.90;;;;;;5100722;27;20438;-84
2021/12/20 09:48:44;;;;;;;68.47;15.30;;;3.00;99.90;;;;;;5100341;27;20047;-85
2021/12/20 09:51:10;;;;;;;76.18;14.18;;;;;;;;;;5117384;27;20051;-85
2021/12/20 09:53:36;;;;;;;74.63;16.20;;;;;;;;;;5100465;27;20508;-85
2021/12/20 09:56:03;;;;;;;91.50;18.38;;;;;;;;;;5099967;27;20488;-85
2021/12/20 09:58:35;;;;;;;84.35;18.30;;;5.10;99.90;;;;;;5099838;27;20047;-85
2021/12/20 10:01:02;;;;;;;65.22;17.67;;;5.10;99.90;;;;;;5116613;27;20047;-85
2021/12/20 10:03:30;;;;;;;64.43;15.80;;;5.10;99.90;;;;;;5099676;27;20401;-86
2021/12/20 10:05:57;;;;;;;59.45;16.33;;;;;;;;;;5116707;27;20047;-86
2021/12/20 10:08:34;;;;;;;60.25;17.80;;;;;;;;;;5082912;27;20039;-85
2021/12/20 10:11:17;;;;;;;62.25;19.05;;;4.70;99.90;;;;;;5107621;28;20047;-85
2021/12/20 10:13:43;;;;;;;50.85;16.30;;;;;;;;;;5079135;28;20051;-86
2021/12/20 10:16:22;;;;;;;54.10;15.02;;;4.60;99.90;;;;;;5079606;28;20032;-85
2021/12/20 10:18:49;;;;;;;55.45;17.52;;;4.50;99.90;;;;;;5096464;28;20492;-85
2021/12/20 10:21:16;;;;;;;53.65;14.95;;;;;;;;;;5096746;28;20485;-85
2021/12/20 10:23:48;;;;;;;53.47;15.38;;;4.50;99.90;;;;;;5079369;28;20051;-85
2021/12/20 10:26:14;;;;;;;47.78;15.32;;;;;;;;;;5095554;28;20043;-85
2021/12/20 10:28:42;;;;;;;48.83;12.65;;;4.40;99.90;;;;;;5086452;27;20043;-83
2021/12/20 10:31:14;;;;;;;51.63;13.75;;;4.40;99.90;;;;;;5078417;28;20098;-85
2021/12/20 10:33:41;;;;;;;46.13;12.70;;;;;;;;;;5078939;28;20051;-85
2021/12/20 10:36:13;;;;;;;41.15;11.60;;;4.40;99.90;;;;;;5079634;28;20069;-85
2021/12/20 10:38:49;;;;;;;35.05;10.20;;;4.30;99.90;;;;;;5079513;28;20114;-84
2021/12/20 10:41:32;;;;;;;41.42;10.50;;;4.30;99.90;;;;;;5095621;28;20134;-84
2021/12/20 10:43:59;;;;;;;37.13;10.18;;;;;;;;;;5096968;28;20052;-85
2021/12/20 10:46:34;;;;;;;40.15;9.90;;;4.40;99.90;;;;;;5080973;28;20065;-84
2021/12/20 10:49:14;;;;;;;39.47;9.40;;;4.40;99.90;;;;;;5080126;28;20107;-85
2021/12/20 10:51:52;;;;;;;40.55;8.95;;;4.40;99.90;;;;;;5080017;28;20137;-86
2021/12/20 10:54:31;;;;;;;31.75;8.77;;;4.50;99.90;;;;;;5079151;28;20139;-85
2021/12/20 10:57:30;;;;;;;35.50;7.60;;;4.50;99.90;;;;;;5079503;28;20040;-85
2021/12/20 11:00:18;;;;;;;29.15;7.72;;;4.50;99.90;;;;;;5095337;28;20063;-85
2021/12/20 11:03:35;;;;;;;34.22;8.00;;;4.50;99.90;;;;;;5098921;28;20074;-85
2021/12/20 11:09:09;;;;;;;28.58;6.53;;;4.60;99.90;;;;;;5100413;28;20050;-85
2021/12/20 11:11:54;;;;;;;27.90;6.72;;;4.60;99.90;;;;;;5083044;28;20043;-85
2021/12/20 11:14:28;;;;;;;26.58;7.18;;;4.60;99.90;;;;;;5082955;28;20047;-85
2021/12/20 11:16:57;;;;;;;31.23;7.60;;;4.70;99.90;;;;;;5083099;28;20047;-85
2021/12/20 11:19:37;;;;;;;30.98;7.20;;;4.70;99.90;;;;;;5082869;28;20131;-85
2021/12/20 11:22:26;;;;;;;38.28;7.43;;;4.70;99.90;;;;;;5099667;28;20047;-85
2021/12/20 11:25:03;;;;;;;29.33;6.40;;;4.80;99.90;;;;;;5100472;28;20055;-84
2021/12/20 11:27:53;;;;;;;26.25;6.28;;;4.80;99.90;;;;;;5082992;28;20052;-84
2021/12/20 11:30:26;;;;;;;24.20;6.00;;;4.90;99.90;;;;;;5099336;28;20058;-85
2021/12/20 11:32:58;;;;;;;28.70;7.10;;;4.90;99.90;;;;;;5118892;28;20051;-84
2021/12/20 11:35:35;;;;;;;23.38;5.93;;;4.90;99.90;;;;;;5083667;28;20389;-83
2021/12/20 11:38:01;;;;;;;24.98;5.75;;;;;;;;;;5083020;28;20039;-83
2021/12/20 11:40:27;;;;;;;20.52;5.28;;;;;;;;;;5082697;28;20047;-83
2021/12/20 11:42:54;;;;;;;24.85;6.28;;;;;;;;;;5082746;28;20044;-83
2021/12/20 11:45:20;;;;;;;21.25;4.90;;;;;;;;;;5119295;28;20052;-83
2021/12/20 11:47:57;;;;;;;21.92;4.90;;;5.30;99.90;;;;;;5123444;28;20047;-83
2021/12/20 11:50:34;;;;;;;16.20;4.75;;;5.20;99.90;;;;;;5105965;28;20416;-82
2021/12/20 11:53:07;;;;;;;17.63;4.85;;;5.40;99.90;;;;;;5082292;28;20413;-83
2021/12/20 11:55:34;;;;;;;21.40;4.68;;;;;;;;;;5081603;28;20444;-83
2021/12/20 11:58:02;;;;;;;18.77;4.60;;;5.40;99.90;;;;;;5082180;28;20071;-82
2021/12/20 12:00:36;;;;;;;19.85;4.38;;;5.50;99.90;;;;;;5098010;28;20063;-82
2021/12/20 12:03:14;;;;;;;14.80;4.32;;;5.50;99.90;;;;;;5081825;28;20104;-83
2021/12/20 12:06:06;;;;;;;16.35;4.05;;;5.60;99.90;;;;;;5081954;28;20050;-82
2021/12/20 12:08:52;;;;;;;14.85;3.70;;;5.70;99.90;;;;;;5116977;28;20135;-82
2021/12/20 12:11:19;;;;;;;15.43;3.78;;;;;;;;;;5098497;28;20051;-82
2021/12/20 12:14:01;;;;;;;14.10;4.15;;;;;;;;;;5116608;28;20100;-83
2021/12/20 12:16:48;;;;;;;12.27;3.92;;;5.80;99.90;;;;;;5097190;28;20489;-83
2021/12/20 12:19:39;;;;;;;14.05;3.80;;;5.90;99.90;;;;;;5096971;28;20055;-84
2021/12/20 12:22:25;;;;;;;10.18;3.80;;;6.20;99.90;;;;;;5083342;28;20062;-81
2021/12/20 12:24:51;;;;;;;17.05;4.07;;;;;;;;;;5099057;28;20070;-83
2021/12/20 12:27:21;;;;;;;11.15;3.30;;;6.10;99.90;;;;;;5098127;28;20130;-83
2021/12/20 12:30:13;;;;;;;12.10;4.20;;;6.20;99.90;;;;;;5097963;28;20043;-84
2021/12/20 12:32:48;;;;;;;15.55;3.95;;;6.20;99.90;;;;;;5080929;28;20082;-84
2021/12/20 12:35:42;;;;;;;12.68;3.53;;;6.40;99.90;;;;;;5081247;28;20126;-83
2021/12/20 12:38:17;;;;;;;11.30;3.17;;;6.40;99.90;;;;;;5098539;28;20051;-83
2021/12/20 12:41:07;;;;;;;12.47;3.43;;;6.40;99.90;;;;;;5097742;28;20489;-83
2021/12/20 12:43:47;;;;;;;12.48;3.00;;;6.40;99.90;;;;;;5086461;27;20289;-83
2021/12/20 12:46:13;;;;;;;7.57;2.63;;;;;;;;;;5117825;27;20561;-83
2021/12/20 12:48:47;;;;;;;10.45;2.70;;;6.50;99.90;;;;;;5100743;27;20035;-83
2021/12/20 12:51:18;;;;;;;9.07;2.80;;;6.50;99.90;;;;;;5135858;27;20465;-83
2021/12/20 12:53:46;;;;;;;10.30;2.90;;;6.50;99.90;;;;;;5100824;27;20051;-83
2021/12/20 12:56:24;;;;;;;11.73;2.78;;;6.50;99.90;;;;;;5083802;27;20053;-83
2021/12/20 12:59:12;;;;;;;12.38;2.88;;;6.50;99.90;;;;;;5100287;27;20047;-84
2021/12/20 13:01:47;;;;;;;7.50;2.25;;;6.50;99.90;;;;;;5100832;27;20057;-84
2021/12/20 13:04:15;;;;;;;9.60;2.47;;;6.70;99.90;;;;;;5101176;27;20480;-83
2021/12/20 13:06:41;;;;;;;12.45;2.63;;;;;;;;;;5100950;27;20043;-83
2021/12/20 13:09:07;;;;;;;8.82;2.55;;;;;;;;;;5100651;27;20100;-82
2021/12/20 13:11:33;;;;;;;7.50;2.10;;;;;;;;;;5118345;27;20408;-82
2021/12/20 13:14:18;;;;;;;5.85;2.20;;;6.50;99.90;;;;;;5118161;27;20477;-81
2021/12/20 13:16:58;;;;;;;9.88;2.22;;;6.60;99.90;;;;;;5118131;27;20532;-83
2021/12/20 13:19:35;;;;;;;6.43;2.20;;;6.50;99.90;;;;;;5117130;27;20114;-83
2021/12/20 13:22:04;;;;;;;6.22;2.10;;;6.60;99.90;;;;;;5117833;27;20061;-83
2021/12/20 13:24:30;;;;;;;9.60;2.58;;;;;;;;;;5100086;27;20430;-83
2021/12/20 13:27:07;;;;;;;9.63;2.55;;;6.70;99.90;;;;;;5135035;27;20087;-83
2021/12/20 13:29:33;;;;;;;12.15;3.05;;;;;;;;;;5096219;27;20053;-83
2021/12/20 13:32:09;;;;;;;12.25;2.58;;;6.60;99.90;;;;;;5097417;28;20047;-83
2021/12/20 13:34:36;;;;;;;28.80;4.78;;;;;;;;;;5079829;28;20032;-83
2021/12/20 13:37:12;;;;;;;12.52;2.80;;;6.70;99.90;;;;;;5096885;28;20070;-83
2021/12/20 13:39:38;;;;;;;12.98;3.50;;;;;;;;;;5095793;28;20451;-83
2021/12/20 13:42:09;;;;;;;14.50;3.40;;;6.70;99.90;;;;;;5114823;28;20055;-83
2021/12/20 13:44:37;;;;;;;15.57;3.90;;;6.60;99.90;;;;;;5096276;28;20047;-83
2021/12/20 13:47:05;;;;;;;11.77;3.45;;;6.60;99.90;;;;;;5096238;28;20051;-83
2021/12/20 13:49:32;;;;;;;12.90;3.55;;;;;;;;;;5096242;28;20079;-83
2021/12/20 13:52:07;;;;;;;8.57;2.80;;;7.00;99.90;;;;;;5079122;28;20139;-83
2021/12/20 13:54:44;;;;;;;15.30;3.25;;;6.60;99.90;;;;;;5079340;28;20044;-83
2021/12/20 13:57:20;;;;;;;16.73;3.63;;;6.10;99.90;;;;;;5079192;28;20123;-83
2021/12/20 13:59:52;;;;;;;21.75;4.25;;;6.50;99.90;;;;;;5078644;28;20142;-83
2021/12/20 14:02:50;;;;;;;13.80;3.50;;;6.60;99.90;;;;;;5114185;28;20051;-82
2021/12/20 14:05:24;;;;;;;11.00;3.40;;;6.50;99.90;;;;;;5058038;28;20054;-83
2021/12/20 14:07:53;;;;;;;11.43;3.10;;;6.50;99.90;;;;;;5078524;28;20050;-83
2021/12/20 14:10:19;;;;;;;14.30;3.33;;;;;;;;;;5113892;28;20052;-83
2021/12/20 14:12:53;;;;;;;14.70;3.40;;;6.40;99.90;;;;;;5078940;28;20050;-83
2021/12/20 14:15:26;;;;;;;10.88;2.90;;;6.40;99.90;;;;;;5079096;28;20410;-83
2021/12/20 14:18:13;;;;;;;10.30;3.10;;;6.30;99.90;;;;;;5079267;28;20047;-83